Time;durP1;ratioP1;P1;durP2;ratioP2;P2;SDS_P1;SDS_P2;PMS_P1;PMS_P2;Temp;Humidity;BMP_temperature;BMP_pressure;BME280_temperature;BME280_humidity;BME280_pressure;Samples;Min_cycle;Max_cycle;Signal;HPM_P1;HPM_P2
2021/09/02 00:00:35;;;;;;;8.15;5.17;;;;;;;10.22;84.92;100250.01;1831406;77;21466;-68
2021/09/02 00:03:02;;;;;;;9.45;5.50;;;;;;;10.23;85.06;100253.03;1820373;77;21510;-68
2021/09/02 00:05:29;;;;;;;7.55;5.67;;;;;;;10.28;85.22;100253.75;1805164;77;20938;-68
2021/09/02 00:07:56;;;;;;;7.97;5.10;;;;;;;10.35;85.35;100252.59;1828241;77;20940;-68
2021/09/02 00:10:23;;;;;;;11.23;7.10;;;;;;;10.40;85.45;100257.19;1827253;77;21107;-68
2021/09/02 00:12:49;;;;;;;8.63;5.87;;;;;;;10.49;85.63;100246.39;1818147;76;21056;-67
2021/09/02 00:15:16;;;;;;;6.80;5.53;;;;;;;10.56;85.62;100242.23;1831972;77;20957;-68
2021/09/02 00:17:43;;;;;;;11.18;6.47;;;;;;;10.61;85.70;100236.38;1822080;77;21547;-68
2021/09/02 00:20:11;;;;;;;7.67;5.42;;;;;;;10.68;85.77;100235.23;1817824;77;20958;-68
2021/09/02 00:22:38;;;;;;;8.78;5.87;;;;;;;10.74;85.83;100225.39;1847382;77;21024;-68
2021/09/02 00:25:07;;;;;;;10.85;6.47;;;;;;;10.81;85.84;100228.62;1828782;77;21140;-68
2021/09/02 00:27:33;;;;;;;7.97;5.35;;;;;;;10.87;85.92;100230.14;1827236;77;20979;-68
2021/09/02 00:30:00;;;;;;;8.68;6.30;;;;;;;10.95;85.99;100225.42;1833463;76;21003;-68
2021/09/02 00:32:27;;;;;;;7.55;5.30;;;;;;;11.02;86.03;100228.66;1839065;77;21008;-68
2021/09/02 00:34:53;;;;;;;7.10;5.17;;;;;;;11.08;86.04;100223.17;1844947;76;21040;-68
2021/09/02 00:37:20;;;;;;;7.00;5.20;;;;;;;11.12;86.11;100216.92;1822184;76;20917;-68
2021/09/02 00:39:46;;;;;;;9.80;5.37;;;;;;;11.17;86.11;100217.55;1847775;76;20992;-68
2021/09/02 00:42:13;;;;;;;8.70;5.33;;;;;;;11.21;86.21;100216.53;1839479;76;21456;-68
2021/09/02 00:44:46;;;;;;;9.20;5.58;;;;;;;11.28;86.28;100214.49;1838443;77;20903;-68
2021/09/02 00:47:19;;;;;;;6.25;5.03;;;;;;;11.33;86.27;100215.16;1786685;78;21060;-68
2021/09/02 00:49:47;;;;;;;7.50;5.30;;;;;;;11.38;86.32;100221.89;1806417;78;21005;-68
2021/09/02 00:52:19;;;;;;;9.55;5.42;;;;;;;11.44;86.40;100223.39;1794867;78;20969;-68
2021/09/02 00:54:48;;;;;;;7.03;5.30;;;;;;;11.49;86.39;100215.36;1797790;78;21544;-68
2021/09/02 00:57:18;;;;;;;7.47;5.17;;;;;;;11.56;86.45;100214.16;1806758;78;20958;-68
2021/09/02 00:59:57;;;;;;;8.90;5.67;;;;;;;11.59;86.45;100209.64;1803980;79;21697;-68
2021/09/02 01:02:26;;;;;;;6.95;4.60;;;;;;;11.65;86.48;100220.33;1825732;77;20977;-68
2021/09/02 01:04:54;;;;;;;9.20;4.75;;;;;;;11.69;86.54;100210.09;1828016;77;21669;-68
2021/09/02 01:07:27;;;;;;;6.05;4.78;;;;;;;11.73;86.61;100209.03;1834384;77;21061;-69
2021/09/02 01:09:56;;;;;;;9.00;6.15;;;;;;;11.78;86.67;100207.06;1851522;77;20910;-68
2021/09/02 01:12:39;;;;;;;9.65;5.20;;;;;;;11.82;86.70;100214.34;1838885;76;21103;-68
2021/09/02 01:15:11;;;;;;;8.65;5.30;;;;;;;11.86;86.73;100212.84;1853083;76;21044;-68
2021/09/02 01:17:41;;;;;;;6.55;5.22;;;;;;;11.92;86.77;100213.49;1853037;77;21476;-68
2021/09/02 01:20:10;;;;;;;6.58;5.28;;;;;;;11.94;86.75;100216.90;1861191;76;20915;-69
2021/09/02 01:22:38;;;;;;;8.55;5.83;;;;;;;11.97;86.83;100214.14;1831733;77;20968;-69
2021/09/02 01:25:10;;;;;;;7.78;5.12;;;;;;;11.99;86.80;100220.16;1836137;77;21031;-69
2021/09/02 01:27:37;;;;;;;5.85;4.60;;;;;;;12.03;86.94;100212.55;1853523;76;20922;-69
2021/09/02 01:30:08;;;;;;;10.00;5.23;;;;;;;12.03;86.91;100205.54;1853892;77;20906;-69
2021/09/02 01:32:37;;;;;;;7.40;5.08;;;;;;;12.05;86.93;100206.80;1847657;77;20923;-68
2021/09/02 01:35:08;;;;;;;7.45;5.20;;;;;;;12.05;86.95;100208.10;1818905;76;21001;-68
2021/09/02 01:37:54;;;;;;;7.72;4.90;;;;;;;12.07;87.04;100204.93;1849252;76;21077;-69
2021/09/02 01:40:35;;;;;;;8.08;4.60;;;;;;;12.10;87.12;100207.44;1825309;76;20974;-69
2021/09/02 01:43:04;;;;;;;6.22;4.70;;;;;;;12.14;87.14;100206.36;1843017;76;21007;-69
2021/09/02 01:45:30;;;;;;;7.00;4.78;;;;;;;12.17;87.19;100206.22;1847451;76;21609;-69
2021/09/02 01:48:01;;;;;;;6.40;4.12;;;;;;;12.18;87.21;100194.81;1848503;76;20967;-69
2021/09/02 01:50:33;;;;;;;6.10;4.58;;;;;;;12.21;87.25;100197.32;1838992;76;21111;-69
2021/09/02 01:53:06;;;;;;;8.15;4.83;;;;;;;12.23;87.28;100202.00;1835969;77;20915;-69
2021/09/02 01:55:34;;;;;;;6.72;4.40;;;;;;;12.27;87.35;100198.34;1801515;78;21231;-69
2021/09/02 01:58:00;;;;;;;7.05;5.10;;;;;;;12.28;87.33;100198.72;1806926;78;21028;-69
2021/09/02 02:00:28;;;;;;;6.60;4.90;;;;;;;12.30;87.37;100199.50;1806006;78;21449;-69
2021/09/02 02:02:54;;;;;;;5.37;4.47;;;;;;;12.31;87.36;100205.58;1803910;78;21452;-69
2021/09/02 02:05:22;;;;;;;7.30;4.90;;;;;;;12.33;87.47;100205.52;1812965;78;21076;-69
2021/09/02 02:07:48;;;;;;;8.55;4.28;;;;;;;12.34;87.43;100201.97;1797630;78;20945;-69
2021/09/02 02:10:20;;;;;;;8.30;4.30;;;;;;;12.34;87.46;100208.52;1813164;78;21028;-69
2021/09/02 02:12:46;;;;;;;8.10;4.78;;;;;;;12.35;87.51;100203.66;1812048;78;22091;-68
2021/09/02 02:15:14;;;;;;;7.40;4.40;;;;;;;12.35;87.51;100208.89;1798995;78;21697;-69
2021/09/02 02:17:42;;;;;;;5.28;4.45;;;;;;;12.35;87.52;100201.04;1824880;77;20975;-69
2021/09/02 02:20:12;;;;;;;6.17;4.53;;;;;;;12.35;87.58;100207.59;1842094;77;20978;-69
2021/09/02 02:22:39;;;;;;;5.40;3.95;;;;;;;12.35;87.56;100207.59;1825422;76;21032;-69
2021/09/02 02:25:08;;;;;;;5.20;3.90;;;;;;;12.29;87.58;100203.05;1842617;76;20989;-68
2021/09/02 02:27:36;;;;;;;6.83;3.60;;;;;;;12.30;87.71;100207.36;1852228;77;20914;-69
2021/09/02 02:30:11;;;;;;;6.67;3.60;;;;;;;12.30;87.80;100213.06;1851679;77;20965;-68
2021/09/02 02:32:37;;;;;;;4.85;3.17;;;;;;;12.33;88.01;100213.37;1844695;77;21550;-69
2021/09/02 02:35:05;;;;;;;5.70;3.40;;;;;;;12.35;88.34;100204.53;1825918;76;20923;-68
2021/09/02 02:37:32;;;;;;;4.90;3.80;;;;;;;12.37;88.16;100200.05;1851015;77;21013;-69
2021/09/02 02:39:59;;;;;;;5.70;3.80;;;;;;;12.38;88.09;100198.27;1828453;76;21863;-69
2021/09/02 02:42:28;;;;;;;4.42;3.42;;;;;;;12.40;88.23;100200.37;1852760;76;20937;-69
2021/09/02 02:44:54;;;;;;;4.75;3.42;;;;;;;12.39;88.27;100193.45;1845741;77;20925;-68
2021/09/02 02:47:21;;;;;;;4.50;3.80;;;;;;;12.39;88.19;100198.69;1831644;77;21570;-69
2021/09/02 02:49:48;;;;;;;4.30;3.80;;;;;;;12.39;88.28;100197.38;1854593;77;20958;-69
2021/09/02 02:52:14;;;;;;;5.23;3.83;;;;;;;12.38;88.42;100193.04;1842077;76;21836;-69
2021/09/02 02:54:41;;;;;;;4.85;3.98;;;;;;;12.37;88.46;100192.66;1825738;76;22401;-69
2021/09/02 02:57:08;;;;;;;5.40;3.70;;;;;;;12.34;88.14;100196.27;1847423;76;20961;-68
2021/09/02 02:59:34;;;;;;;8.00;3.87;;;;;;;12.31;88.29;100203.80;1851324;77;21001;-68
2021/09/02 03:02:01;;;;;;;5.40;4.00;;;;;;;12.27;88.14;100193.10;1850304;76;21001;-69
2021/09/02 03:04:28;;;;;;;4.87;3.52;;;;;;;12.24;88.22;100199.80;1847008;77;21417;-69
2021/09/02 03:06:54;;;;;;;7.13;3.73;;;;;;;12.22;88.28;100195.08;1824853;77;20956;-69
2021/09/02 03:09:21;;;;;;;5.43;3.83;;;;;;;12.20;88.19;100194.30;1829465;76;20930;-69
2021/09/02 03:11:48;;;;;;;6.33;3.70;;;;;;;12.17;88.30;100199.67;1832650;76;21441;-69
2021/09/02 03:14:14;;;;;;;4.70;3.92;;;;;;;12.16;88.42;100203.22;1831242;77;21156;-69
2021/09/02 03:16:41;;;;;;;5.40;4.17;;;;;;;12.14;88.30;100205.52;1829389;78;21086;-68
2021/09/02 03:19:08;;;;;;;5.63;4.10;;;;;;;12.11;88.59;100201.27;1824256;77;20978;-69
2021/09/02 03:21:35;;;;;;;5.85;3.98;;;;;;;12.11;88.79;100201.27;1829852;77;21650;-69
2021/09/02 03:24:01;;;;;;;6.63;3.87;;;;;;;12.10;88.71;100206.13;1820828;78;21524;-69
2021/09/02 03:26:28;;;;;;;6.40;3.70;;;;;;;12.06;88.51;100203.25;1797560;79;21024;-68
2021/09/02 03:28:55;;;;;;;5.00;3.90;;;;;;;12.04;88.58;100210.31;1831600;77;21107;-68
2021/09/02 03:31:21;;;;;;;5.75;3.80;;;;;;;12.03;88.67;100211.23;1785457;78;21005;-69
2021/09/02 03:33:48;;;;;;;5.00;4.20;;;;;;;12.00;88.95;100211.38;1833959;77;20951;-68
2021/09/02 03:36:15;;;;;;;5.53;4.33;;;;;;;12.01;89.33;100207.83;1819675;78;20952;-68
2021/09/02 03:38:41;;;;;;;6.23;4.20;;;;;;;12.02;89.57;100213.48;1813502;78;21041;-68
2021/09/02 03:41:08;;;;;;;6.73;4.33;;;;;;;12.00;89.04;100212.69;1822843;78;21725;-68
2021/09/02 03:43:34;;;;;;;6.70;4.10;;;;;;;11.97;89.15;100214.14;1824575;78;21516;-69
2021/09/02 03:46:01;;;;;;;6.10;4.10;;;;;;;11.95;89.02;100214.66;1823309;78;21615;-68
2021/09/02 03:48:28;;;;;;;5.28;4.05;;;;;;;11.93;88.85;100209.95;1828410;78;20920;-68
2021/09/02 03:50:54;;;;;;;6.57;4.60;;;;;;;11.85;88.74;100216.39;1816813;78;21048;-68
2021/09/02 03:53:21;;;;;;;7.93;4.37;;;;;;;11.81;88.69;100211.31;1820522;78;21314;-68
2021/09/02 03:55:47;;;;;;;9.75;4.15;;;;;;;11.78;89.01;100214.92;1818663;78;21182;-68
2021/09/02 03:58:14;;;;;;;5.75;4.00;;;;;;;11.76;88.89;100214.59;1836319;78;20958;-68
2021/09/02 04:00:41;;;;;;;7.28;4.28;;;;;;;11.74;89.17;100219.91;1828717;77;21553;-68
2021/09/02 04:03:07;;;;;;;4.93;3.43;;;;;;;11.75;89.39;100224.67;1832028;78;21636;-68
2021/09/02 04:05:34;;;;;;;4.97;3.80;;;;;;;11.75;89.22;100228.14;1833484;78;21059;-67
2021/09/02 04:08:01;;;;;;;7.35;4.33;;;;;;;11.76;89.34;100235.09;1832397;77;20916;-67
2021/09/02 04:10:27;;;;;;;8.33;3.93;;;;;;;11.79;89.24;100232.33;1834836;78;21631;-68
2021/09/02 04:12:54;;;;;;;4.85;3.27;;;;;;;11.81;89.24;100237.48;1836648;75;21064;-67
2021/09/02 04:15:21;;;;;;;8.80;4.72;;;;;;;11.81;89.27;100236.17;1835905;77;21598;-68
2021/09/02 04:17:47;;;;;;;5.50;4.10;;;;;;;11.83;89.36;100235.66;1833083;76;21038;-67
2021/09/02 04:20:14;;;;;;;5.85;4.40;;;;;;;11.83;89.26;100240.42;1834328;76;20923;-67
2021/09/02 04:22:41;;;;;;;10.43;4.90;;;;;;;11.84;89.36;100238.19;1823896;77;21570;-68
2021/09/02 04:25:09;;;;;;;6.10;4.70;;;;;;;11.86;89.46;100240.78;1842131;77;21504;-67
2021/09/02 04:27:35;;;;;;;8.08;4.10;;;;;;;11.86;89.43;100239.01;1841290;77;21009;-68
2021/09/02 04:30:03;;;;;;;5.53;4.03;;;;;;;11.88;89.24;100238.11;1838075;77;21853;-67
2021/09/02 04:32:30;;;;;;;7.12;4.97;;;;;;;11.88;89.52;100240.73;1833918;77;20980;-67
2021/09/02 04:34:56;;;;;;;5.30;4.40;;;;;;;11.88;89.48;100240.27;1828853;75;21147;-68
2021/09/02 04:37:23;;;;;;;7.83;5.03;;;;;;;11.89;89.68;100242.42;1842519;75;21509;-67
2021/09/02 04:39:50;;;;;;;5.53;4.55;;;;;;;11.93;89.52;100246.58;1831045;77;20995;-67
2021/09/02 04:42:17;;;;;;;6.22;4.22;;;;;;;11.96;89.48;100243.39;1842007;77;21123;-67
2021/09/02 04:44:43;;;;;;;7.60;4.73;;;;;;;12.02;89.60;100240.49;1841335;77;20915;-68
2021/09/02 04:47:10;;;;;;;6.42;4.87;;;;;;;12.10;89.53;100245.39;1815084;76;21021;-67
2021/09/02 04:49:37;;;;;;;7.33;4.70;;;;;;;12.18;89.45;100243.71;1815065;77;20978;-67
2021/09/02 04:52:04;;;;;;;4.92;4.22;;;;;;;12.24;89.33;100248.23;1832797;76;20872;-68
2021/09/02 04:54:31;;;;;;;5.37;3.95;;;;;;;12.28;89.25;100237.15;1840746;77;21057;-67
2021/09/02 04:56:57;;;;;;;5.92;4.20;;;;;;;12.34;89.29;100244.71;1842223;77;20950;-68
2021/09/02 04:59:24;;;;;;;5.20;3.87;;;;;;;12.41;89.33;100245.30;1840823;76;22846;-67
2021/09/02 05:01:50;;;;;;;8.17;3.90;;;;;;;12.53;89.34;100244.72;1829814;76;21007;-68
2021/09/02 05:04:17;;;;;;;4.87;3.50;;;;;;;12.64;89.37;100243.74;1837585;77;20932;-68
2021/09/02 05:06:44;;;;;;;11.07;4.73;;;;;;;12.75;89.31;100242.77;1835959;77;21058;-68
2021/09/02 05:09:10;;;;;;;10.80;4.90;;;;;;;12.97;89.53;100244.36;1833063;77;21064;-67
2021/09/02 05:11:37;;;;;;;5.92;4.05;;;;;;;13.24;89.34;100244.75;1837270;77;20920;-68
2021/09/02 05:14:04;;;;;;;4.87;4.25;;;;;;;13.45;89.11;100242.88;1841701;76;21011;-68
2021/09/02 05:16:30;;;;;;;6.05;4.28;;;;;;;13.62;88.64;100255.97;1789694;78;21009;-68
2021/09/02 05:18:57;;;;;;;6.95;4.20;;;;;;;14.04;88.97;100248.56;1840939;77;21042;-68
2021/09/02 05:21:24;;;;;;;7.35;4.40;;;;;;;14.74;88.77;100244.73;1840218;77;20993;-68
2021/09/02 05:23:50;;;;;;;7.13;4.33;;;;;;;15.26;87.60;100248.78;1787728;78;21528;-68
2021/09/02 05:26:17;;;;;;;7.53;4.30;;;;;;;15.21;85.11;100258.75;1782257;78;20977;-68
2021/09/02 05:28:44;;;;;;;7.40;4.00;;;;;;;14.94;85.76;100259.38;1824102;77;20960;-68
2021/09/02 05:31:10;;;;;;;6.00;3.80;;;;;;;14.90;86.16;100264.45;1772715;78;21718;-68
2021/09/02 05:33:37;;;;;;;5.42;4.33;;;;;;;14.81;86.39;100267.57;1810816;77;21504;-68
2021/09/02 05:36:04;;;;;;;6.10;3.35;;;;;;;14.82;86.68;100270.60;1816002;77;21002;-68
2021/09/02 05:38:31;;;;;;;4.87;3.80;;;;;;;14.82;86.90;100270.60;1818204;77;20975;-68
2021/09/02 05:40:58;;;;;;;6.15;3.40;;;;;;;14.69;86.34;100269.58;1809889;77;20946;-68
2021/09/02 05:43:25;;;;;;;7.42;4.25;;;;;;;14.59;86.61;100273.64;1817617;77;21165;-68
2021/09/02 05:45:52;;;;;;;14.63;4.30;;;;;;;14.81;86.93;100268.88;1799200;77;21002;-71
2021/09/02 05:48:19;;;;;;;9.15;4.33;;;;;;;15.15;86.86;100273.10;1821662;77;21683;-71
2021/09/02 05:50:46;;;;;;;10.48;3.98;;;;;;;15.71;87.39;100273.38;1837882;77;21054;-71
2021/09/02 05:53:13;;;;;;;10.40;3.62;;;;;;;16.38;86.85;100272.80;1836761;77;21063;-70
2021/09/02 05:55:39;;;;;;;11.15;4.17;;;;;;;17.14;85.26;100281.13;1833759;77;21115;-71
2021/09/02 05:58:06;;;;;;;16.23;4.72;;;;;;;17.72;85.63;100272.88;1836662;77;20956;-71
2021/09/02 06:00:33;;;;;;;5.72;4.17;;;;;;;18.11;85.11;100276.76;1837186;77;21002;-71
2021/09/02 06:02:59;;;;;;;;;;;;;;;18.11;82.45;100283.36;1842025;77;21652;-72
2021/09/02 06:05:26;;;;;;;4.80;3.52;;;;;;;18.16;80.74;100286.18;1843535;77;20168;-72
2021/09/02 06:07:53;;;;;;;4.92;3.65;;;;;;;18.17;79.99;100289.18;1831759;77;21078;-72
2021/09/02 06:10:19;;;;;;;7.40;3.67;;;;;;;18.27;81.92;100287.59;1833811;77;20879;-71
2021/09/02 06:12:46;;;;;;;6.05;3.92;;;;;;;18.27;81.17;100284.95;1820797;77;20965;-71
2021/09/02 06:15:13;;;;;;;4.35;3.47;;;;;;;18.48;81.09;100290.50;1842361;77;20980;-71
2021/09/02 06:17:39;;;;;;;5.42;3.98;;;;;;;18.46;81.25;100295.91;1835459;76;21095;-72
2021/09/02 06:20:08;;;;;;;6.10;3.47;;;;;;;18.37;79.68;100293.90;1838700;76;26791;-71
2021/09/02 06:22:35;;;;;;;9.55;3.10;;;;;;;18.33;80.52;100284.51;1844693;76;21099;-71
2021/09/02 06:25:02;;;;;;;7.00;3.60;;;;;;;18.23;79.29;100288.74;1841061;76;21429;-71
2021/09/02 06:27:28;;;;;;;5.30;2.98;;;;;;;18.11;79.97;100283.36;1840858;76;21496;-71
2021/09/02 06:29:55;;;;;;;;;;;;;;;18.17;76.30;100294.47;1813065;77;21519;-70
2021/09/02 06:32:21;;;;;;;3.90;1.95;;;;;;;17.86;76.90;100286.02;1840027;76;21110;-71
2021/09/02 06:34:48;;;;;;;4.17;2.60;;;;;;;17.86;76.90;100286.02;1841274;76;20999;-71
2021/09/02 06:37:15;;;;;;;3.90;1.87;;;;;;;17.92;75.93;100290.88;1839699;77;20910;-71
2021/09/02 06:39:41;;;;;;;4.97;2.05;;;;;;;17.64;72.82;100287.47;1809011;77;20932;-70
2021/09/02 06:42:08;;;;;;;4.08;2.35;;;;;;;17.80;74.35;100289.08;1835418;77;20984;-70
2021/09/02 06:44:35;;;;;;;;;;;;;;;17.91;75.37;100283.91;1838544;76;21083;-71
2021/09/02 06:47:01;;;;;;;2.33;1.55;;;;;;;18.07;72.51;100278.42;1837568;76;21037;-70
2021/09/02 06:49:28;;;;;;;2.52;1.20;;;;;;;17.90;71.62;100296.76;1840179;76;22008;-71
2021/09/02 06:51:55;;;;;;;2.65;1.40;;;;;;;18.13;75.18;100289.03;1838883;77;21135;-71
2021/09/02 06:54:22;;;;;;;1.30;1.20;;;;;;;18.40;72.57;100299.00;1841406;77;21192;-70
2021/09/02 06:56:49;;;;;;;2.52;1.27;;;;;;;18.30;69.59;100297.95;1836271;76;21072;-71
2021/09/02 06:59:15;;;;;;;2.65;1.30;;;;;;;17.77;64.54;100299.83;1847614;77;20950;-71
2021/09/02 07:01:42;;;;;;;4.10;1.50;;;;;;;17.55;65.25;100311.83;1843551;76;20886;-71
2021/09/02 07:04:09;;;;;;;3.40;1.65;;;;;;;17.39;66.69;100304.11;1840799;76;20879;-71
2021/09/02 07:06:35;;;;;;;;;;;;;;;17.46;70.25;100319.05;1839224;76;20971;-71
2021/09/02 07:09:02;;;;;;;2.90;1.10;;;;;;;17.42;68.64;100341.30;1841722;77;21061;-71
2021/09/02 07:11:29;;;;;;;2.72;1.37;;;;;;;17.14;64.87;100331.26;1842447;76;20891;-71
2021/09/02 07:13:57;;;;;;;1.30;1.00;;;;;;;17.07;67.18;100337.86;1839754;76;20942;-71
2021/09/02 07:16:24;;;;;;;3.17;1.47;;;;;;;16.62;64.82;100327.95;1838999;77;21658;-71
2021/09/02 07:18:50;;;;;;;;;;;;;;;16.15;59.63;100346.20;1839774;77;21091;-71
2021/09/02 07:21:17;;;;;;;1.65;1.17;;;;;;;15.64;58.73;100344.39;1849409;77;21110;-70
2021/09/02 07:23:43;;;;;;;3.40;1.57;;;;;;;15.52;63.18;100341.17;1849198;76;21021;-71
2021/09/02 07:26:10;;;;;;;4.00;1.35;;;;;;;15.38;63.30;100348.06;1845927;77;21106;-71
2021/09/02 07:28:37;;;;;;;3.12;1.65;;;;;;;15.26;62.57;100364.53;1845950;76;20936;-71
2021/09/02 07:31:03;;;;;;;2.87;1.50;;;;;;;15.15;59.52;100349.82;1843199;76;21595;-70
2021/09/02 07:33:30;;;;;;;3.27;1.27;;;;;;;15.36;64.36;100357.83;1848570;77;21021;-70
2021/09/02 07:35:58;;;;;;;3.73;1.63;;;;;;;15.36;64.36;100357.83;1840243;76;21687;-71
2021/09/02 07:38:25;;;;;;;2.85;1.50;;;;;;;15.34;64.55;100364.95;1841979;76;20983;-70
2021/09/02 07:40:52;;;;;;;2.67;1.55;;;;;;;15.49;65.33;100363.25;1846009;76;20950;-69
2021/09/02 07:43:18;;;;;;;4.60;1.70;;;;;;;15.69;65.82;100367.39;1844597;76;20875;-70
2021/09/02 07:45:45;;;;;;;4.60;1.20;;;;;;;15.84;65.35;100370.42;1846615;76;21578;-69
2021/09/02 07:48:11;;;;;;;3.60;2.23;;;;;;;15.78;63.98;100380.48;1846446;77;20989;-70
2021/09/02 07:50:39;;;;;;;3.42;1.52;;;;;;;15.55;62.04;100364.67;1842264;76;21140;-70
2021/09/02 07:53:05;;;;;;;2.72;1.12;;;;;;;15.61;64.65;100359.89;1844819;77;26643;-70
2021/09/02 07:55:32;;;;;;;4.15;1.52;;;;;;;15.58;61.84;100370.60;1833318;76;20922;-70
2021/09/02 07:58:00;;;;;;;22.57;2.90;;;;;;;15.43;61.99;100369.70;1843282;77;21018;-70
2021/09/02 08:00:27;;;;;;;2.62;1.17;;;;;;;15.52;63.45;100378.02;1798105;77;20951;-70
2021/09/02 08:02:54;;;;;;;4.45;1.35;;;;;;;15.59;61.82;100388.55;1802773;77;20972;-70
2021/09/02 08:05:20;;;;;;;2.70;1.17;;;;;;;15.54;61.61;100387.49;1779894;78;20947;-70
2021/09/02 08:07:52;;;;;;;4.92;1.30;;;;;;;15.54;62.49;100384.86;1797053;78;21565;-70
2021/09/02 08:10:22;;;;;;;4.35;1.62;;;;;;;15.54;61.54;100389.28;1804246;78;21297;-70
2021/09/02 08:12:50;;;;;;;4.05;1.52;;;;;;;15.50;62.57;100398.30;1810845;78;20945;-70
2021/09/02 08:15:17;;;;;;;;;;;;;;;15.45;61.61;100398.08;1801476;78;21622;-70
2021/09/02 08:17:44;;;;;;;;;;;;;;;15.32;59.56;100411.57;1810746;78;20134;-70
2021/09/02 08:20:12;;;;;;;3.85;1.12;;;;;;;15.23;60.37;100408.11;1805988;78;20514;-71
2021/09/02 08:22:39;;;;;;;5.55;1.67;;;;;;;15.31;60.34;100405.06;1764306;79;21471;-70
2021/09/02 08:25:08;;;;;;;;;;;;;;;15.36;60.66;100426.23;1804279;78;20989;-70
2021/09/02 08:27:35;;;;;;;3.42;1.40;;;;;;;15.44;61.17;100424.02;1817165;78;20311;-70
2021/09/02 08:30:04;;;;;;;5.33;1.45;;;;;;;15.42;60.73;100412.73;1806130;78;20981;-71
2021/09/02 08:32:33;;;;;;;3.12;1.50;;;;;;;15.55;61.41;100409.42;1808895;78;20981;-71
2021/09/02 08:34:59;;;;;;;5.50;1.50;;;;;;;15.50;59.38;100403.56;1800351;78;21151;-71
2021/09/02 08:37:25;;;;;;;2.72;1.40;;;;;;;15.36;58.01;100422.77;1808555;78;20990;-70
2021/09/02 08:39:53;;;;;;;1.55;1.05;;;;;;;15.44;61.12;100411.34;1810018;78;21023;-71
2021/09/02 08:42:20;;;;;;;13.78;1.70;;;;;;;15.57;60.72;100402.27;1800558;77;21512;-71
2021/09/02 08:44:47;;;;;;;;;;;;;;;15.68;59.88;100401.21;1805742;77;21156;-71
2021/09/02 08:47:14;;;;;;;4.05;1.30;;;;;;;15.74;58.82;100404.83;1776174;78;21723;-70
2021/09/02 08:49:40;;;;;;;3.70;1.70;;;;;;;15.61;58.30;100406.44;1789992;77;21012;-71
2021/09/02 08:52:07;;;;;;;6.25;1.35;;;;;;;15.67;56.57;100406.08;1811040;77;20955;-71
2021/09/02 08:54:35;;;;;;;5.15;1.60;;;;;;;15.70;56.59;100409.87;1810042;77;28230;-71
2021/09/02 08:57:01;;;;;;;6.05;1.30;;;;;;;15.72;50.74;100406.70;1798458;78;21013;-70
2021/09/02 08:59:28;;;;;;;5.83;1.55;;;;;;;15.66;54.83;100401.76;1807003;77;21054;-70
2021/09/02 09:01:55;;;;;;;3.33;1.02;;;;;;;15.75;56.75;100409.15;1803073;77;20952;-70
2021/09/02 09:04:22;;;;;;;2.45;1.30;;;;;;;15.90;56.57;100410.03;1788084;78;20910;-70
2021/09/02 09:06:50;;;;;;;2.70;1.17;;;;;;;15.89;57.64;100413.14;1829843;77;21017;-71
2021/09/02 09:09:18;;;;;;;2.95;1.50;;;;;;;15.88;54.99;100415.41;1812602;77;20960;-70
2021/09/02 09:11:47;;;;;;;;;;;;;;;15.73;55.02;100411.02;1835016;77;21063;-70
2021/09/02 09:14:19;;;;;;;2.67;1.32;;;;;;;15.74;56.13;100403.95;1824986;76;20431;-70
2021/09/02 09:16:58;;;;;;;1.95;1.02;;;;;;;15.80;57.27;100420.27;1832968;76;21606;-70
2021/09/02 09:19:52;;;;;;;1.42;0.90;;;;;;;15.87;55.78;100413.69;1828343;77;20951;-70
2021/09/02 09:22:21;;;;;;;2.27;1.20;;;;;;;15.89;55.89;100431.58;1820297;77;20999;-69
2021/09/02 09:25:04;;;;;;;2.17;1.20;;;;;;;16.00;55.47;100428.80;1820429;77;21069;-71
2021/09/02 09:27:50;;;;;;;4.22;0.93;;;;;;;16.00;54.92;100431.43;1817445;77;20979;-69
2021/09/02 09:30:29;;;;;;;3.92;1.00;;;;;;;16.00;56.80;100428.80;1817904;77;21062;-70
2021/09/02 09:33:07;;;;;;;2.42;1.40;;;;;;;15.97;55.96;100442.15;1815311;77;20999;-70
2021/09/02 09:35:43;;;;;;;2.10;1.12;;;;;;;15.86;54.84;100446.24;1824686;77;20960;-70
2021/09/02 09:38:16;;;;;;;3.35;1.35;;;;;;;15.66;53.39;100439.93;1817807;77;21059;-71
2021/09/02 09:40:49;;;;;;;3.02;1.22;;;;;;;15.50;55.15;100453.57;1820944;77;21003;-70
2021/09/02 09:43:24;;;;;;;5.95;1.15;;;;;;;15.48;54.04;100450.16;1822686;76;21055;-70
2021/09/02 09:45:54;;;;;;;3.83;0.98;;;;;;;15.52;54.88;100447.77;1822894;77;20943;-71
2021/09/02 09:48:26;;;;;;;1.87;0.98;;;;;;;15.55;55.22;100443.64;1825146;77;21449;-69
2021/09/02 09:51:17;;;;;;;2.33;0.90;;;;;;;15.65;55.40;100454.01;1827704;77;22089;-69
2021/09/02 09:53:52;;;;;;;1.67;0.90;;;;;;;15.61;54.97;100449.87;1825834;77;21514;-69
2021/09/02 09:56:23;;;;;;;2.80;1.17;;;;;;;15.71;55.20;100468.20;1821937;76;20936;-70
2021/09/02 09:58:53;;;;;;;1.70;0.98;;;;;;;15.76;55.66;100449.02;1818301;77;21007;-70
2021/09/02 10:01:21;;;;;;;1.22;0.70;;;;;;;15.72;54.67;100443.55;1823612;76;21000;-67
2021/09/02 10:03:51;;;;;;;3.02;1.00;;;;;;;15.82;55.13;100465.80;1818532;76;21069;-68
2021/09/02 10:06:20;;;;;;;0.93;0.68;;;;;;;15.89;56.13;100463.66;1819907;77;21589;-68
2021/09/02 10:08:47;;;;;;;5.90;1.00;;;;;;;15.82;55.61;100463.17;1824363;77;20987;-72
2021/09/02 10:11:16;;;;;;;2.70;1.10;;;;;;;15.76;55.12;100463.49;1822544;77;21451;-69
2021/09/02 10:13:44;;;;;;;1.15;0.80;;;;;;;15.76;54.55;100467.44;1826382;76;21019;-72
2021/09/02 10:16:11;;;;;;;2.15;1.05;;;;;;;15.68;54.90;100449.91;1795159;78;21728;-72
2021/09/02 10:18:45;;;;;;;2.95;0.80;;;;;;;15.59;55.51;100453.05;1771784;79;20926;-70
2021/09/02 10:21:14;;;;;;;3.00;0.88;;;;;;;15.49;55.41;100480.80;1795154;78;21003;-72
2021/09/02 10:23:41;;;;;;;3.55;1.02;;;;;;;15.36;56.24;100449.08;1825633;77;20980;-72
2021/09/02 10:26:28;;;;;;;;;;;;;;;15.46;56.64;100455.53;1828546;77;20965;-71
2021/09/02 10:28:54;;;;;;;3.58;1.10;;;;;;;15.58;56.78;100461.89;1827056;78;22086;-67
2021/09/02 10:31:25;;;;;;;2.43;0.93;;;;;;;15.48;56.45;100447.53;1828275;77;20960;-70
2021/09/02 10:33:52;;;;;;;4.67;1.00;;;;;;;15.45;56.94;100453.81;1822084;77;21005;-69
2021/09/02 10:36:24;;;;;;;1.67;0.80;;;;;;;15.27;56.53;100456.17;1818182;77;20946;-69
2021/09/02 10:38:56;;;;;;;1.35;0.90;;;;;;;15.37;56.99;100446.34;1828992;77;21537;-68
2021/09/02 10:41:40;;;;;;;2.22;0.95;;;;;;;15.33;57.08;100449.25;1839332;77;21086;-68
2021/09/02 10:44:09;;;;;;;6.42;1.30;;;;;;;15.34;57.48;100451.78;1804883;78;21005;-68
2021/09/02 10:46:45;;;;;;;2.33;1.05;;;;;;;15.42;57.85;100446.94;1826971;78;21043;-68
2021/09/02 10:49:26;;;;;;;3.13;0.80;;;;;;;15.40;56.59;100442.25;1834202;78;21005;-68
2021/09/02 10:52:06;;;;;;;2.45;1.20;;;;;;;15.35;57.33;100446.08;1836386;78;20938;-68
2021/09/02 10:54:38;;;;;;;6.15;1.27;;;;;;;15.38;56.74;100432.74;1813508;77;21534;-69
2021/09/02 10:57:09;;;;;;;2.35;1.27;;;;;;;15.40;56.53;100438.30;1830744;77;21804;-68
2021/09/02 10:59:41;;;;;;;2.62;1.15;;;;;;;15.40;56.26;100450.59;1828745;77;20950;-70
2021/09/02 11:02:19;;;;;;;1.90;1.10;;;;;;;15.35;56.82;100456.12;1791866;78;21030;-70
2021/09/02 11:05:00;;;;;;;2.67;1.10;;;;;;;15.40;56.88;100446.20;1826320;77;21694;-69
2021/09/02 11:07:46;;;;;;;3.95;1.10;;;;;;;15.41;57.12;100449.67;1825313;77;21086;-69
2021/09/02 11:10:19;;;;;;;3.75;1.35;;;;;;;15.64;57.45;100454.95;1796305;78;20895;-69
2021/09/02 11:12:58;;;;;;;2.67;1.07;;;;;;;15.89;57.39;100447.85;1804725;79;21568;-70
2021/09/02 11:15:26;;;;;;;9.35;1.30;;;;;;;15.97;56.27;100455.31;1802698;78;20969;-69
2021/09/02 11:18:01;;;;;;;4.22;1.50;;;;;;;15.98;56.29;100464.91;1799389;77;20930;-69
2021/09/02 11:20:31;;;;;;;3.70;1.40;;;;;;;15.98;56.16;100462.27;1756060;79;21147;-69
2021/09/02 11:23:12;;;;;;;3.52;1.30;;;;;;;16.03;55.68;100479.50;1800951;78;21461;-69
2021/09/02 11:25:52;;;;;;;5.55;1.52;;;;;;;16.08;56.08;100452.91;1790191;78;21640;-69
2021/09/02 11:28:22;;;;;;;7.25;1.30;;;;;;;16.13;56.40;100458.73;1772167;79;21511;-69
2021/09/02 11:30:51;;;;;;;6.37;1.57;;;;;;;16.18;55.24;100456.67;1782509;78;20930;-70
2021/09/02 11:33:19;;;;;;;2.30;1.30;;;;;;;16.27;56.35;100448.25;1772200;79;21519;-69